Time;durP1;ratioP1;P1;durP2;ratioP2;P2;SDS_P1;SDS_P2;PMS_P1;PMS_P2;Temp;Humidity;BMP_temperature;BMP_pressure;BME280_temperature;BME280_humidity;BME280_pressure;Samples;Min_cycle;Max_cycle;Signal;HPM_P1;HPM_P2
2021/05/24 00:00:23;;;;;;;7.28;4.70;;;17.80;62.00;;;;;;4976123;28;20385;-73
2021/05/24 00:02:50;;;;;;;6.00;4.70;;;17.80;62.00;;;;;;4975811;28;20474;-72
2021/05/24 00:05:27;;;;;;;7.70;5.18;;;17.80;62.00;;;;;;4975670;28;20034;-71
2021/05/24 00:07:53;;;;;;;10.30;5.43;;;17.80;62.00;;;;;;4975834;28;20090;-72
2021/05/24 00:10:22;;;;;;;9.27;5.43;;;17.80;62.00;;;;;;4975524;28;20118;-72
2021/05/24 00:12:50;;;;;;;5.88;3.88;;;17.80;62.10;;;;;;4975182;28;20065;-71
2021/05/24 00:15:19;;;;;;;8.32;4.88;;;17.80;62.00;;;;;;4974933;28;20094;-71
2021/05/24 00:17:46;;;;;;;8.38;4.57;;;17.80;62.00;;;;;;4975749;28;20026;-71
2021/05/24 00:20:12;;;;;;;7.25;4.40;;;17.80;62.00;;;;;;4975640;28;20433;-71
2021/05/24 00:22:38;;;;;;;6.25;4.00;;;17.80;62.00;;;;;;4975585;28;20892;-72
2021/05/24 00:25:06;;;;;;;7.45;4.20;;;17.90;62.10;;;;;;4975475;28;20035;-72
2021/05/24 00:27:32;;;;;;;8.68;4.00;;;17.80;62.10;;;;;;5006867;28;20031;-72
2021/05/24 00:29:58;;;;;;;4.38;3.35;;;17.90;62.30;;;;;;4975323;28;20094;-72
2021/05/24 00:32:24;;;;;;;5.00;3.10;;;17.90;62.30;;;;;;4975502;28;20042;-72
2021/05/24 00:34:50;;;;;;;5.85;4.13;;;18.00;62.30;;;;;;4975368;28;20027;-73
2021/05/24 00:37:16;;;;;;;6.70;3.88;;;18.00;62.20;;;;;;4975202;28;20023;-74
2021/05/24 00:39:42;;;;;;;8.43;4.20;;;18.00;62.30;;;;;;4975346;28;20027;-74
2021/05/24 00:42:07;;;;;;;12.63;5.82;;;18.10;62.10;;;;;;4975195;28;20477;-74
2021/05/24 00:44:33;;;;;;;12.43;6.30;;;18.10;62.00;;;;;;4975125;28;20038;-73
2021/05/24 00:46:59;;;;;;;10.90;5.47;;;18.10;62.00;;;;;;4975139;28;20034;-74
2021/05/24 00:49:27;;;;;;;7.70;5.10;;;18.10;62.00;;;;;;4975026;28;20600;-73
2021/05/24 00:51:54;;;;;;;7.75;5.00;;;18.10;62.20;;;;;;4975076;28;20116;-74
2021/05/24 00:54:21;;;;;;;7.72;4.50;;;18.00;62.10;;;;;;4974957;28;20022;-74
2021/05/24 00:56:47;;;;;;;9.27;4.32;;;18.10;62.30;;;;;;4974781;28;20022;-74
2021/05/24 00:59:13;;;;;;;11.82;4.78;;;18.00;62.70;;;;;;4975014;28;20030;-73
2021/05/24 01:01:38;;;;;;;10.07;4.70;;;17.90;63.30;;;;;;4974729;28;20034;-73
2021/05/24 01:04:04;;;;;;;9.02;4.93;;;17.90;63.70;;;;;;4974653;28;20109;-73
2021/05/24 01:06:30;;;;;;;10.15;4.28;;;17.90;64.10;;;;;;4974784;28;20023;-74
2021/05/24 01:08:56;;;;;;;8.43;4.63;;;17.80;64.90;;;;;;4974653;28;20458;-73
2021/05/24 01:11:22;;;;;;;13.00;5.30;;;17.80;65.90;;;;;;5005909;28;20031;-74
2021/05/24 01:13:48;;;;;;;12.77;5.00;;;17.70;66.40;;;;;;4973281;28;20027;-73
2021/05/24 01:16:13;;;;;;;12.82;4.85;;;17.60;67.20;;;;;;4974451;28;20489;-73
2021/05/24 01:18:39;;;;;;;6.72;4.78;;;17.50;67.80;;;;;;4974567;28;20031;-74
2021/05/24 01:21:11;;;;;;;8.73;4.55;;;17.40;68.60;;;;;;4974927;28;20027;-73
2021/05/24 01:23:41;;;;;;;6.20;4.47;;;17.30;69.00;;;;;;4974427;28;20094;-73
2021/05/24 01:26:07;;;;;;;9.93;5.32;;;17.20;69.40;;;;;;4974142;28;20106;-73
2021/05/24 01:28:33;;;;;;;7.28;4.70;;;17.10;70.20;;;;;;4974155;28;20027;-74
2021/05/24 01:31:00;;;;;;;6.47;4.80;;;17.10;70.70;;;;;;4974404;28;20026;-74
2021/05/24 01:33:25;;;;;;;6.15;5.07;;;16.90;70.90;;;;;;5007358;28;20026;-81
2021/05/24 01:35:52;;;;;;;9.38;5.10;;;16.80;71.90;;;;;;4976793;28;20361;-81
2021/05/24 01:38:18;;;;;;;8.70;5.07;;;16.80;72.60;;;;;;4976809;28;20027;-82
2021/05/24 01:40:45;;;;;;;8.55;4.80;;;16.70;73.10;;;;;;4977308;28;20065;-82
2021/05/24 01:43:11;;;;;;;9.20;5.03;;;16.60;73.50;;;;;;4976810;28;20019;-82
2021/05/24 01:45:38;;;;;;;6.22;4.60;;;16.50;74.30;;;;;;4976574;28;20031;-82
2021/05/24 01:48:04;;;;;;;8.25;4.88;;;16.50;74.90;;;;;;4976194;28;20060;-82
2021/05/24 01:50:31;;;;;;;8.93;5.32;;;16.40;75.30;;;;;;4977093;28;20059;-82
2021/05/24 01:52:57;;;;;;;8.07;5.13;;;16.40;76.10;;;;;;4977335;28;20089;-82
2021/05/24 01:55:22;;;;;;;11.20;5.40;;;16.40;76.90;;;;;;4975241;28;20038;-74
2021/05/24 01:57:48;;;;;;;7.22;5.03;;;16.30;77.50;;;;;;4973820;28;20023;-74
2021/05/24 02:00:23;;;;;;;10.45;5.95;;;16.40;78.00;;;;;;4973651;28;20532;-74
2021/05/24 02:02:50;;;;;;;9.38;5.97;;;16.30;79.00;;;;;;4973781;28;20026;-74
2021/05/24 02:05:17;;;;;;;13.57;5.63;;;16.30;79.40;;;;;;4973705;28;20022;-74
2021/05/24 02:07:48;;;;;;;9.88;6.15;;;16.20;80.00;;;;;;5005239;28;20501;-74
2021/05/24 02:10:17;;;;;;;11.88;6.78;;;16.20;80.80;;;;;;4972332;28;20113;-74
2021/05/24 02:12:44;;;;;;;10.63;6.40;;;16.20;81.30;;;;;;4974105;28;20161;-73
2021/05/24 02:15:13;;;;;;;8.77;6.65;;;16.10;81.70;;;;;;4973881;28;20362;-75
2021/05/24 02:17:38;;;;;;;15.65;6.38;;;16.10;81.90;;;;;;4973923;28;20023;-73
2021/05/24 02:20:06;;;;;;;11.30;5.78;;;16.00;82.60;;;;;;4974184;28;20038;-74
2021/05/24 02:22:32;;;;;;;8.57;5.57;;;16.10;83.20;;;;;;5005193;28;20031;-73
2021/05/24 02:24:58;;;;;;;8.25;5.80;;;16.00;83.40;;;;;;4973675;28;20027;-74
2021/05/24 02:27:24;;;;;;;8.27;5.90;;;15.90;83.40;;;;;;4974131;28;20026;-74
2021/05/24 02:29:50;;;;;;;14.18;6.50;;;15.90;83.70;;;;;;4973588;28;20512;-74
2021/05/24 02:32:15;;;;;;;12.50;5.65;;;15.90;84.40;;;;;;4973106;28;20031;-74
2021/05/24 02:34:41;;;;;;;11.02;6.38;;;15.90;84.80;;;;;;4973295;28;20034;-74
2021/05/24 02:37:07;;;;;;;10.32;6.45;;;15.90;85.20;;;;;;4972490;28;20107;-75
2021/05/24 02:39:33;;;;;;;10.85;6.35;;;15.80;85.70;;;;;;4973151;28;20053;-74
2021/05/24 02:41:58;;;;;;;18.67;6.65;;;15.80;86.30;;;;;;4972818;28;20065;-74
2021/05/24 02:44:24;;;;;;;9.25;6.57;;;15.80;86.70;;;;;;4973202;28;20065;-74
2021/05/24 02:46:51;;;;;;;9.65;6.53;;;15.70;87.00;;;;;;4973369;28;20839;-75
2021/05/24 02:49:16;;;;;;;11.32;6.18;;;15.70;87.30;;;;;;4973100;28;20037;-74
2021/05/24 02:51:42;;;;;;;14.80;6.93;;;15.60;87.30;;;;;;4973204;28;20023;-73
2021/05/24 02:54:09;;;;;;;13.32;7.03;;;15.60;87.40;;;;;;4973070;28;20031;-73
2021/05/24 02:56:36;;;;;;;10.50;6.38;;;15.50;87.60;;;;;;4972880;28;20027;-73
2021/05/24 02:59:03;;;;;;;12.43;7.07;;;15.40;88.20;;;;;;5004485;28;20030;-74
2021/05/24 03:01:30;;;;;;;8.18;7.10;;;15.40;89.70;;;;;;4973069;28;20034;-74
2021/05/24 03:03:58;;;;;;;9.48;6.70;;;15.30;90.30;;;;;;4972807;28;20474;-74
2021/05/24 03:06:24;;;;;;;10.38;7.18;;;15.30;90.80;;;;;;4972941;28;20027;-73
2021/05/24 03:08:50;;;;;;;13.27;8.43;;;15.30;91.20;;;;;;4972764;28;20489;-73
2021/05/24 03:11:17;;;;;;;17.67;11.80;;;15.20;91.10;;;;;;4973716;28;20050;-82
2021/05/24 03:13:43;;;;;;;21.13;11.02;;;15.00;91.50;;;;;;4974223;28;20029;-82
2021/05/24 03:16:09;;;;;;;16.63;8.30;;;14.90;92.10;;;;;;4973952;28;20023;-82
2021/05/24 03:18:35;;;;;;;16.10;9.05;;;14.80;92.40;;;;;;4973213;28;20058;-81
2021/05/24 03:21:00;;;;;;;15.25;10.70;;;14.60;92.70;;;;;;4974413;28;20386;-81
2021/05/24 03:23:27;;;;;;;20.10;12.50;;;14.30;93.70;;;;;;4997498;28;20074;-81
2021/05/24 03:25:52;;;;;;;21.20;11.35;;;14.10;94.80;;;;;;4996869;28;20082;-82
2021/05/24 03:28:18;;;;;;;14.93;10.25;;;14.00;95.90;;;;;;4981473;28;20019;-72
2021/05/24 03:30:44;;;;;;;23.00;13.00;;;13.90;96.80;;;;;;4972577;28;20477;-72
2021/05/24 03:33:10;;;;;;;17.42;10.00;;;13.90;97.60;;;;;;4971391;28;20031;-72
2021/05/24 03:35:35;;;;;;;16.80;10.15;;;13.80;98.10;;;;;;4972597;28;20073;-72
2021/05/24 03:38:02;;;;;;;13.80;10.70;;;13.70;98.20;;;;;;4972461;28;20066;-72
2021/05/24 03:40:28;;;;;;;15.20;10.30;;;13.70;98.70;;;;;;4972772;28;20027;-72
2021/05/24 03:42:53;;;;;;;14.48;10.50;;;13.60;99.20;;;;;;4972548;28;20444;-72
2021/05/24 03:45:26;;;;;;;11.50;9.48;;;13.60;99.60;;;;;;4972649;28;20029;-72
2021/05/24 03:47:53;;;;;;;14.80;10.10;;;13.60;99.50;;;;;;4973037;28;20379;-72
2021/05/24 03:50:20;;;;;;;10.85;8.48;;;13.50;99.80;;;;;;4976144;28;20065;-72
2021/05/24 03:52:46;;;;;;;13.38;10.20;;;13.40;99.90;;;;;;4976278;28;20528;-73
2021/05/24 03:55:14;;;;;;;15.10;11.95;;;13.40;99.90;;;;;;4976153;28;20019;-73
2021/05/24 03:57:40;;;;;;;15.35;12.77;;;13.30;99.90;;;;;;4975913;28;20106;-73
2021/05/24 04:00:08;;;;;;;15.10;10.50;;;13.30;99.90;;;;;;4976087;28;20035;-75
2021/05/24 04:02:34;;;;;;;14.07;11.60;;;13.30;99.90;;;;;;4975865;28;20027;-72
2021/05/24 04:05:03;;;;;;;15.45;10.00;;;13.20;99.90;;;;;;4975593;28;20073;-73
2021/05/24 04:07:29;;;;;;;16.00;12.52;;;13.20;99.90;;;;;;4975644;28;20165;-72
2021/05/24 04:09:55;;;;;;;23.05;13.95;;;13.20;99.90;;;;;;4975402;28;20111;-74
2021/05/24 04:12:21;;;;;;;17.05;12.23;;;13.20;99.90;;;;;;4975610;28;20026;-72
2021/05/24 04:14:46;;;;;;;17.63;14.20;;;13.20;99.90;;;;;;4975565;28;20027;-73
2021/05/24 04:17:13;;;;;;;21.38;12.32;;;13.30;99.90;;;;;;4975634;28;20073;-72
2021/05/24 04:19:43;;;;;;;18.27;14.50;;;13.30;99.90;;;;;;4975411;28;20355;-73
2021/05/24 04:22:11;;;;;;;21.52;15.65;;;13.30;99.90;;;;;;4975384;28;20030;-74
2021/05/24 04:24:36;;;;;;;22.08;15.60;;;13.30;99.90;;;;;;4975171;28;20031;-72
2021/05/24 04:27:02;;;;;;;21.52;17.17;;;13.30;99.90;;;;;;4973745;28;20038;-73
2021/05/24 04:29:28;;;;;;;20.75;14.65;;;13.40;99.90;;;;;;4974907;28;20474;-73
2021/05/24 04:31:54;;;;;;;19.00;14.40;;;13.40;99.90;;;;;;4975153;28;20039;-74
2021/05/24 04:34:19;;;;;;;25.30;15.73;;;13.40;99.90;;;;;;4974912;28;20045;-77
2021/05/24 04:36:45;;;;;;;20.70;12.25;;;13.50;99.90;;;;;;4975203;28;20101;-73
2021/05/24 04:39:11;;;;;;;15.32;12.48;;;13.50;99.90;;;;;;4975260;28;20134;-72
2021/05/24 04:41:36;;;;;;;18.45;13.05;;;13.50;99.90;;;;;;4974507;28;20191;-72
2021/05/24 04:44:18;;;;;;;14.93;11.77;;;13.50;99.90;;;;;;4974956;28;20026;-74
2021/05/24 04:46:44;;;;;;;15.90;13.13;;;13.50;99.90;;;;;;4974763;28;20035;-73
2021/05/24 04:49:10;;;;;;;15.68;12.52;;;13.60;99.90;;;;;;4974745;28;20038;-73
2021/05/24 04:51:36;;;;;;;17.70;11.70;;;13.60;99.90;;;;;;4974497;28;20026;-72
2021/05/24 04:54:02;;;;;;;16.00;10.23;;;13.70;99.90;;;;;;4974501;28;20242;-73
2021/05/24 04:56:28;;;;;;;10.57;9.20;;;13.70;99.90;;;;;;4974042;28;20030;-73
2021/05/24 04:58:53;;;;;;;10.35;9.20;;;13.60;99.90;;;;;;4974338;28;20031;-73
2021/05/24 05:01:19;;;;;;;9.88;7.75;;;13.50;99.90;;;;;;4972656;28;20030;-72
2021/05/24 05:03:45;;;;;;;12.13;9.35;;;13.50;99.90;;;;;;4974447;28;20073;-73
2021/05/24 05:06:10;;;;;;;12.40;8.93;;;13.40;99.90;;;;;;4974345;28;20525;-73
2021/05/24 05:08:36;;;;;;;10.45;9.05;;;13.40;99.90;;;;;;4974533;28;20023;-73
2021/05/24 05:11:02;;;;;;;10.68;7.78;;;13.40;99.90;;;;;;4973873;28;20034;-74
2021/05/24 05:13:28;;;;;;;8.38;7.45;;;13.40;99.90;;;;;;4973259;28;20114;-74
2021/05/24 05:15:53;;;;;;;9.55;8.48;;;13.40;99.90;;;;;;4973686;28;20101;-74
2021/05/24 05:18:19;;;;;;;10.68;6.85;;;13.40;99.90;;;;;;4973767;28;20033;-74
2021/05/24 05:20:45;;;;;;;10.93;7.35;;;13.40;99.90;;;;;;4973423;28;20374;-73
2021/05/24 05:23:10;;;;;;;9.93;7.13;;;13.50;99.90;;;;;;4973621;28;20474;-73
2021/05/24 05:25:36;;;;;;;8.43;7.32;;;13.50;99.90;;;;;;4973519;28;20098;-74
2021/05/24 05:28:03;;;;;;;10.93;8.43;;;13.60;99.90;;;;;;4973511;28;20057;-74
2021/05/24 05:30:28;;;;;;;9.43;6.43;;;13.60;99.90;;;;;;4976357;28;20035;-84
2021/05/24 05:32:54;;;;;;;9.48;6.47;;;13.60;99.90;;;;;;4976539;28;20045;-85
2021/05/24 05:35:20;;;;;;;7.93;6.38;;;13.60;99.90;;;;;;4975888;28;20438;-74
2021/05/24 05:37:49;;;;;;;11.85;7.78;;;13.60;99.90;;;;;;4973731;28;20086;-74
2021/05/24 05:40:17;;;;;;;11.43;7.85;;;13.60;99.90;;;;;;4973696;28;20432;-74
2021/05/24 05:42:44;;;;;;;9.75;5.80;;;13.60;99.90;;;;;;4973215;28;20058;-75
2021/05/24 05:45:12;;;;;;;7.50;6.80;;;13.60;99.90;;;;;;4973298;28;20523;-75
2021/05/24 05:47:38;;;;;;;8.98;7.00;;;13.60;99.90;;;;;;4973551;28;20035;-75
2021/05/24 05:50:05;;;;;;;11.60;7.40;;;13.50;99.90;;;;;;4973625;28;20034;-75
2021/05/24 05:52:31;;;;;;;9.40;7.68;;;13.50;99.90;;;;;;4973570;28;20042;-75
2021/05/24 05:54:56;;;;;;;12.05;8.52;;;13.50;99.90;;;;;;4973512;28;20027;-75
2021/05/24 05:57:22;;;;;;;10.13;7.90;;;13.40;99.90;;;;;;4974105;28;20031;-74
2021/05/24 05:59:48;;;;;;;11.32;8.73;;;13.40;99.90;;;;;;4973297;28;20027;-75
2021/05/24 06:02:14;;;;;;;9.10;8.15;;;13.40;99.90;;;;;;4972685;28;20528;-74
2021/05/24 06:04:39;;;;;;;9.23;8.23;;;13.40;99.90;;;;;;4973320;28;20034;-75
2021/05/24 06:07:08;;;;;;;11.32;8.10;;;13.40;99.90;;;;;;4973905;28;20104;-75
2021/05/24 06:09:33;;;;;;;11.13;8.95;;;13.40;99.90;;;;;;4973206;28;20031;-74
2021/05/24 06:12:00;;;;;;;11.10;9.20;;;13.40;99.90;;;;;;4972486;28;20386;-77
2021/05/24 06:14:26;;;;;;;12.13;7.78;;;13.50;99.90;;;;;;4973224;28;20069;-75
2021/05/24 06:16:51;;;;;;;10.25;8.68;;;13.50;99.90;;;;;;4973340;28;20541;-77
2021/05/24 06:19:17;;;;;;;10.20;9.20;;;13.60;99.90;;;;;;5004734;28;20795;-75
2021/05/24 06:21:43;;;;;;;13.98;10.52;;;13.60;99.90;;;;;;5004591;28;20057;-75
2021/05/24 06:24:09;;;;;;;16.30;8.32;;;13.70;99.90;;;;;;4972966;28;20027;-75
2021/05/24 06:26:36;;;;;;;13.05;7.93;;;13.70;99.90;;;;;;4972869;28;20081;-77
2021/05/24 06:29:02;;;;;;;10.13;8.00;;;13.80;99.90;;;;;;4972791;28;20055;-75
2021/05/24 06:31:28;;;;;;;14.07;10.68;;;13.90;99.90;;;;;;4972941;28;20023;-75
2021/05/24 06:33:53;;;;;;;21.17;11.38;;;14.00;99.90;;;;;;4971863;28;20023;-75
2021/05/24 06:36:19;;;;;;;18.52;9.95;;;14.00;99.90;;;;;;4972914;28;20023;-76
2021/05/24 06:38:45;;;;;;;13.70;9.45;;;14.00;99.90;;;;;;4972916;28;20023;-77
2021/05/24 06:41:11;;;;;;;9.13;7.78;;;14.00;99.90;;;;;;4973007;28;20023;-74
2021/05/24 06:43:36;;;;;;;13.13;8.00;;;14.00;99.90;;;;;;4973270;28;20101;-76
2021/05/24 06:46:02;;;;;;;15.02;8.73;;;13.90;99.90;;;;;;4972761;28;20073;-75
2021/05/24 06:48:28;;;;;;;11.07;9.52;;;13.80;99.90;;;;;;4971570;28;20374;-75
2021/05/24 06:50:53;;;;;;;11.40;8.75;;;13.70;99.90;;;;;;4972666;28;20118;-73
2021/05/24 06:53:19;;;;;;;12.73;9.90;;;13.70;99.90;;;;;;4972499;28;20027;-74
2021/05/24 06:55:45;;;;;;;11.23;9.88;;;13.70;99.90;;;;;;4972505;28;20051;-76
2021/05/24 06:58:11;;;;;;;11.93;8.50;;;13.70;99.90;;;;;;4972515;28;20031;-74
2021/05/24 07:00:36;;;;;;;12.90;9.65;;;13.60;99.90;;;;;;4972695;28;20080;-74
2021/05/24 07:03:02;;;;;;;11.32;8.35;;;13.50;99.90;;;;;;4972916;28;20054;-74
2021/05/24 07:05:28;;;;;;;9.55;7.97;;;13.50;99.90;;;;;;4972546;28;20034;-75
2021/05/24 07:07:54;;;;;;;12.90;9.50;;;13.40;99.90;;;;;;4971686;28;20045;-74
2021/05/24 07:10:20;;;;;;;14.85;10.70;;;13.30;99.90;;;;;;4972388;28;20066;-75
2021/05/24 07:12:47;;;;;;;12.50;9.30;;;13.30;99.90;;;;;;4972263;28;20114;-74
2021/05/24 07:15:12;;;;;;;14.10;8.65;;;13.20;99.90;;;;;;4972448;28;20027;-73
2021/05/24 07:17:38;;;;;;;13.23;9.45;;;13.20;99.90;;;;;;4972567;28;20019;-76
2021/05/24 07:20:05;;;;;;;10.65;9.32;;;13.20;99.90;;;;;;4972531;28;20447;-74
2021/05/24 07:22:31;;;;;;;13.48;9.63;;;13.30;99.90;;;;;;4972976;28;20497;-74
2021/05/24 07:24:57;;;;;;;15.55;10.32;;;13.30;99.90;;;;;;4976154;28;20102;-75
2021/05/24 07:27:23;;;;;;;14.48;10.88;;;13.30;99.90;;;;;;4976324;28;20170;-73
2021/05/24 07:29:49;;;;;;;15.45;10.88;;;13.40;99.90;;;;;;4974653;28;20101;-74
2021/05/24 07:32:15;;;;;;;11.27;9.93;;;13.50;99.90;;;;;;4976341;28;20034;-73
2021/05/24 07:34:41;;;;;;;19.00;10.60;;;13.40;99.90;;;;;;4976165;28;20478;-74
2021/05/24 07:37:07;;;;;;;16.48;12.35;;;13.50;99.90;;;;;;4976044;28;20068;-75
2021/05/24 07:39:33;;;;;;;15.50;12.05;;;13.50;99.90;;;;;;4976310;28;20023;-75
2021/05/24 07:42:01;;;;;;;22.67;14.60;;;13.40;99.90;;;;;;4976059;28;20461;-74
2021/05/24 07:44:30;;;;;;;22.98;16.25;;;13.40;99.90;;;;;;4976073;28;20030;-72
2021/05/24 07:46:57;;;;;;;18.83;11.88;;;13.30;99.90;;;;;;4975996;28;20045;-74
2021/05/24 07:49:23;;;;;;;22.85;15.98;;;13.20;99.90;;;;;;4975850;28;20030;-74
2021/05/24 07:51:50;;;;;;;23.33;17.55;;;13.20;99.90;;;;;;4975093;28;20019;-74
2021/05/24 07:54:19;;;;;;;22.48;14.90;;;13.10;99.90;;;;;;4975680;28;20366;-74
2021/05/24 07:56:46;;;;;;;27.80;16.95;;;13.10;99.90;;;;;;4975448;28;20050;-75
2021/05/24 07:59:13;;;;;;;27.30;18.48;;;13.20;99.90;;;;;;4975314;28;20031;-74
2021/05/24 08:01:39;;;;;;;23.33;15.98;;;13.20;99.90;;;;;;4975508;28;20029;-74
2021/05/24 08:04:05;;;;;;;21.73;14.63;;;13.30;99.90;;;;;;4975094;28;20031;-74
2021/05/24 08:06:32;;;;;;;19.35;13.50;;;13.30;99.90;;;;;;4974894;28;20356;-74
2021/05/24 08:08:59;;;;;;;22.77;14.13;;;13.30;99.90;;;;;;4974973;28;20023;-74
2021/05/24 08:11:25;;;;;;;17.27;12.45;;;13.20;99.90;;;;;;4974888;28;20097;-74
2021/05/24 08:13:53;;;;;;;19.98;14.75;;;13.20;99.90;;;;;;4975046;28;20023;-73
2021/05/24 08:16:20;;;;;;;26.40;16.55;;;13.20;99.90;;;;;;4975091;28;20358;-74
2021/05/24 08:18:46;;;;;;;20.67;14.32;;;13.20;99.90;;;;;;4975359;28;20023;-76
2021/05/24 08:21:12;;;;;;;19.20;14.60;;;13.20;99.90;;;;;;4974944;28;20023;-76
2021/05/24 08:23:38;;;;;;;16.45;11.75;;;13.20;99.90;;;;;;4975268;28;20054;-76
2021/05/24 08:26:04;;;;;;;15.10;12.05;;;13.30;99.90;;;;;;4975310;28;20031;-75
2021/05/24 08:28:30;;;;;;;19.10;13.50;;;13.30;99.90;;;;;;4974981;28;20043;-75
2021/05/24 08:30:57;;;;;;;19.48;14.35;;;13.30;99.90;;;;;;4975509;28;20093;-77
2021/05/24 08:33:23;;;;;;;21.15;15.02;;;13.40;99.90;;;;;;4974896;28;20069;-75
2021/05/24 08:35:51;;;;;;;20.30;14.95;;;13.40;99.90;;;;;;4973722;28;20019;-74
2021/05/24 08:38:18;;;;;;;18.02;13.13;;;13.50;99.90;;;;;;4974705;28;20023;-77
2021/05/24 08:40:46;;;;;;;24.08;16.95;;;13.60;99.90;;;;;;4974653;28;20026;-77
2021/05/24 08:43:14;;;;;;;18.33;14.75;;;13.60;99.90;;;;;;4974618;28;20030;-76
2021/05/24 08:45:40;;;;;;;19.75;14.35;;;13.70;99.90;;;;;;4974624;28;20038;-76
2021/05/24 08:48:08;;;;;;;20.48;14.30;;;13.80;99.90;;;;;;4975904;28;20117;-75
2021/05/24 08:50:34;;;;;;;20.85;12.85;;;13.80;99.90;;;;;;4974221;28;20031;-75
2021/05/24 08:53:00;;;;;;;18.20;13.43;;;13.90;99.90;;;;;;4973985;28;20031;-76
2021/05/24 08:55:26;;;;;;;16.77;12.63;;;13.90;99.90;;;;;;4974887;28;20022;-75
2021/05/24 08:57:57;;;;;;;19.20;12.25;;;14.00;99.90;;;;;;4974965;28;20035;-77
2021/05/24 09:00:23;;;;;;;14.45;11.48;;;14.00;99.90;;;;;;4974499;28;20038;-78
2021/05/24 09:02:54;;;;;;;15.32;11.82;;;14.00;99.90;;;;;;4974514;28;20030;-75
2021/05/24 09:05:27;;;;;;;14.02;10.57;;;14.00;99.90;;;;;;4974383;28;20038;-78
2021/05/24 09:08:02;;;;;;;12.88;10.18;;;14.00;99.90;;;;;;4972875;28;20031;-78
2021/05/24 09:10:29;;;;;;;17.48;13.05;;;14.00;99.90;;;;;;4974463;28;20422;-75
2021/05/24 09:12:56;;;;;;;18.35;12.65;;;14.00;99.90;;;;;;4974048;28;20493;-75
2021/05/24 09:15:24;;;;;;;15.45;10.50;;;14.10;99.90;;;;;;4974393;28;20034;-77
2021/05/24 09:17:52;;;;;;;15.25;11.15;;;14.10;99.90;;;;;;4974634;28;20131;-81
2021/05/24 09:20:24;;;;;;;13.60;9.45;;;14.20;99.90;;;;;;4974057;28;20150;-77
2021/05/24 09:23:18;;;;;;;11.18;9.93;;;14.20;99.90;;;;;;4973491;28;20093;-76
2021/05/24 09:25:47;;;;;;;10.00;7.32;;;14.20;99.90;;;;;;4973469;28;20023;-75
2021/05/24 09:28:32;;;;;;;10.80;7.88;;;14.30;99.90;;;;;;4973338;28;20033;-76
2021/05/24 09:30:57;;;;;;;15.55;8.25;;;14.20;99.90;;;;;;4973488;28;20089;-76
2021/05/24 09:33:24;;;;;;;13.45;10.18;;;14.20;99.90;;;;;;4973533;28;20035;-77
2021/05/24 09:35:51;;;;;;;9.27;6.90;;;14.30;99.90;;;;;;4973266;28;20027;-77
2021/05/24 09:38:19;;;;;;;9.23;6.80;;;14.20;99.90;;;;;;4973682;28;20102;-76
2021/05/24 09:40:56;;;;;;;8.60;6.90;;;14.20;99.90;;;;;;4973383;28;20050;-76
2021/05/24 09:43:35;;;;;;;8.15;6.55;;;14.30;99.90;;;;;;4972208;28;20031;-77
2021/05/24 09:46:13;;;;;;;12.75;7.80;;;14.30;99.90;;;;;;4973189;28;20023;-76
2021/05/24 09:48:40;;;;;;;7.75;6.95;;;14.30;99.90;;;;;;4971943;28;20113;-75
2021/05/24 09:51:13;;;;;;;6.72;6.07;;;14.30;99.90;;;;;;4972869;28;20063;-76
2021/05/24 09:53:39;;;;;;;6.57;5.95;;;14.30;99.90;;;;;;4972083;28;20027;-76
2021/05/24 09:56:15;;;;;;;8.75;5.95;;;14.20;99.90;;;;;;4972983;28;20110;-76
2021/05/24 09:58:41;;;;;;;13.18;7.55;;;14.20;99.90;;;;;;4973046;28;20106;-75
2021/05/24 10:01:29;;;;;;;7.75;6.28;;;14.20;99.90;;;;;;4973042;28;20027;-76
2021/05/24 10:03:59;;;;;;;7.90;5.57;;;14.20;99.90;;;;;;4971092;28;20042;-75
2021/05/24 10:06:25;;;;;;;6.13;5.53;;;14.10;99.90;;;;;;4973016;28;20089;-76
2021/05/24 10:08:53;;;;;;;6.95;6.32;;;14.10;99.90;;;;;;4972733;28;20034;-76
2021/05/24 10:11:20;;;;;;;8.15;6.68;;;14.10;99.90;;;;;;4973153;28;20023;-77
2021/05/24 10:13:47;;;;;;;8.35;5.07;;;14.10;99.90;;;;;;4973423;28;20043;-79
2021/05/24 10:16:15;;;;;;;6.50;4.72;;;14.10;99.90;;;;;;4975201;28;20402;-80
2021/05/24 10:18:41;;;;;;;7.03;4.78;;;14.20;99.90;;;;;;4973958;28;20090;-80
2021/05/24 10:21:07;;;;;;;6.55;5.38;;;14.20;99.90;;;;;;4973877;28;20023;-81
2021/05/24 10:23:33;;;;;;;6.45;4.55;;;14.20;99.90;;;;;;4972884;28;20022;-80
2021/05/24 10:26:01;;;;;;;5.40;4.90;;;14.20;99.90;;;;;;4972639;28;20085;-81
2021/05/24 10:28:28;;;;;;;6.78;5.57;;;14.20;99.90;;;;;;4972956;28;20568;-81
2021/05/24 10:30:56;;;;;;;7.80;5.47;;;14.30;99.90;;;;;;4972695;28;20038;-81
2021/05/24 10:33:26;;;;;;;5.22;4.72;;;14.30;99.90;;;;;;4972712;28;20330;-80
2021/05/24 10:35:52;;;;;;;6.80;6.20;;;14.30;99.90;;;;;;4973268;28;20031;-83
2021/05/24 10:38:27;;;;;;;6.15;5.55;;;14.40;99.90;;;;;;4973098;28;20019;-80
2021/05/24 10:41:13;;;;;;;8.32;6.78;;;14.40;99.90;;;;;;4971579;28;20027;-83
2021/05/24 10:43:46;;;;;;;9.40;5.90;;;14.40;99.90;;;;;;4972279;28;20019;-80
2021/05/24 10:46:29;;;;;;;9.98;6.88;;;14.50;99.90;;;;;;4972425;28;20027;-83
2021/05/24 10:49:10;;;;;;;9.48;8.18;;;14.50;99.90;;;;;;4972380;28;20033;-82
2021/05/24 10:51:53;;;;;;;7.38;6.50;;;14.60;99.90;;;;;;4973648;28;20027;-80
2021/05/24 10:54:22;;;;;;;10.10;5.50;;;14.50;99.90;;;;;;4974548;28;20030;-85
2021/05/24 10:57:05;;;;;;;6.22;4.28;;;14.50;99.90;;;;;;4972301;28;20027;-83
2021/05/24 10:59:43;;;;;;;7.43;4.68;;;14.50;99.90;;;;;;4977553;28;20057;-83
2021/05/24 11:02:08;;;;;;;7.72;5.00;;;14.60;99.90;;;;;;4978646;28;20033;-81
2021/05/24 11:04:51;;;;;;;11.23;6.03;;;14.60;99.90;;;;;;4977340;28;20030;-83
2021/05/24 11:07:34;;;;;;;8.23;5.32;;;14.60;99.90;;;;;;4979523;28;20027;-81
2021/05/24 11:10:18;;;;;;;10.82;6.78;;;14.60;99.90;;;;;;4982378;28;20030;-82
2021/05/24 11:13:17;;;;;;;6.13;4.65;;;14.60;99.90;;;;;;4980038;28;20544;-80
2021/05/24 11:15:44;;;;;;;5.53;3.85;;;14.60;99.90;;;;;;4978930;28;20022;-80
2021/05/24 11:18:23;;;;;;;4.68;3.22;;;14.60;99.90;;;;;;4977844;28;20114;-82
2021/05/24 11:20:56;;;;;;;4.30;3.60;;;14.70;99.90;;;;;;4979016;28;20027;-82
2021/05/24 11:23:44;;;;;;;7.60;3.92;;;14.70;99.90;;;;;;4977744;28;20117;-81
2021/05/24 11:26:35;;;;;;;4.50;4.10;;;14.80;99.90;;;;;;4978910;28;20054;-79
2021/05/24 11:29:15;;;;;;;3.90;3.60;;;14.80;99.90;;;;;;4977945;28;20043;-81
2021/05/24 11:31:53;;;;;;;9.73;4.15;;;14.80;99.90;;;;;;4978870;28;20074;-81
2021/05/24 11:34:32;;;;;;;7.05;4.20;;;14.90;99.90;;;;;;4979109;28;20056;-82
2021/05/24 11:37:03;;;;;;;4.95;3.20;;;14.90;99.90;;;;;;4978575;28;20117;-82
2021/05/24 11:39:32;;;;;;;6.55;3.50;;;15.00;99.90;;;;;;4978171;28;20130;-81
2021/05/24 11:42:10;;;;;;;4.20;3.80;;;15.00;99.90;;;;;;4977982;28;20058;-83
2021/05/24 11:44:45;;;;;;;4.85;3.60;;;15.00;99.90;;;;;;4977003;28;20030;-82
2021/05/24 11:47:14;;;;;;;4.75;3.92;;;15.10;99.90;;;;;;4978450;28;20493;-82
2021/05/24 11:49:42;;;;;;;3.40;3.10;;;15.10;99.90;;;;;;4978405;28;20045;-81
2021/05/24 11:52:14;;;;;;;3.42;3.17;;;15.10;99.90;;;;;;4976916;28;20358;-82
2021/05/24 11:54:40;;;;;;;4.45;3.25;;;15.00;99.90;;;;;;4978843;28;20545;-82
2021/05/24 11:57:08;;;;;;;3.78;3.20;;;15.00;99.90;;;;;;4978851;28;20023;-82
2021/05/24 11:59:35;;;;;;;6.07;3.33;;;15.00;99.90;;;;;;4979161;28;20070;-82
2021/05/24 12:02:03;;;;;;;5.47;3.30;;;15.00;99.90;;;;;;4977968;28;20039;-80
2021/05/24 12:04:40;;;;;;;3.78;3.17;;;14.90;99.90;;;;;;4980226;28;20030;-77
2021/05/24 12:07:06;;;;;;;3.60;3.30;;;14.90;99.90;;;;;;4979022;28;20089;-79
2021/05/24 12:09:32;;;;;;;5.93;3.45;;;14.80;99.90;;;;;;4976889;28;20023;-80
2021/05/24 12:11:59;;;;;;;6.40;3.50;;;14.80;99.90;;;;;;4974250;28;20390;-80
2021/05/24 12:14:25;;;;;;;4.90;3.15;;;14.80;99.90;;;;;;4974528;28;20031;-82
2021/05/24 12:16:53;;;;;;;4.38;2.92;;;14.80;99.90;;;;;;4976713;28;20099;-83
2021/05/24 12:19:21;;;;;;;6.03;3.50;;;14.80;99.90;;;;;;4976234;28;20094;-85
2021/05/24 12:21:47;;;;;;;3.40;3.10;;;14.80;99.90;;;;;;4976432;28;20055;-82
2021/05/24 12:24:13;;;;;;;5.15;3.70;;;14.80;99.90;;;;;;4976471;28;20489;-82
2021/05/24 12:26:46;;;;;;;6.90;3.33;;;14.80;99.90;;;;;;4976647;28;20312;-81
2021/05/24 12:29:15;;;;;;;5.47;3.63;;;14.80;99.90;;;;;;4975108;28;20105;-80
2021/05/24 12:31:46;;;;;;;4.93;3.65;;;14.80;99.90;;;;;;4975025;28;20070;-80
2021/05/24 12:34:13;;;;;;;2.95;2.70;;;14.80;99.90;;;;;;4976185;28;20134;-80
2021/05/24 12:36:56;;;;;;;5.65;3.33;;;14.80;99.90;;;;;;4976605;28;20022;-79
2021/05/24 12:39:25;;;;;;;6.85;3.20;;;14.80;99.90;;;;;;4976134;28;20131;-76
2021/05/24 12:41:55;;;;;;;4.78;2.90;;;14.80;99.90;;;;;;4974941;28;20085;-77